Terminal Aerodrome Forecast
Issued by NWS

Home | Current Version | Previous Version | Text Only | Print | Product List | Glossary On
Versions: 1 2 3 4 5 6 7 8 9 10 11 12 13 14 15 16 17 18 19
000
FTUS42 KTAE 282320
TAFECP
TAF
KECP 282320Z 2900/2924 32008KT P6SM SCT250
     FM290300 VRB03KT P6SM SCT100 SCT250
     FM291400 07006KT P6SM SCT070
     FM291900 14007KT P6SM FEW060 SCT250=

USA.gov is the U.S. government's official web portal to all federal, state and local government web resources and services.